createdAt,value
2022-08-24T00:00:27.947Z,19.60
2022-08-24T00:02:58.622Z,19.50
2022-08-24T00:05:29.715Z,19.20
2022-08-24T00:08:00.305Z,19.20
2022-08-24T00:10:31.145Z,19.00
2022-08-24T00:13:01.843Z,18.90
2022-08-24T00:15:32.596Z,18.70
2022-08-24T00:18:03.518Z,18.60
2022-08-24T00:20:34.481Z,18.30
2022-08-24T00:23:05.631Z,18.10
2022-08-24T00:25:37.220Z,18.10
2022-08-24T00:28:08.265Z,18.10
2022-08-24T00:30:38.857Z,18.00
2022-08-24T00:33:09.470Z,17.90
2022-08-24T00:35:40.769Z,17.90
2022-08-24T00:38:11.805Z,18.00
2022-08-24T00:40:45.456Z,17.90
2022-08-24T00:43:17.913Z,18.00
2022-08-24T00:45:51.666Z,18.50
2022-08-24T00:48:26.161Z,18.20
2022-08-24T00:51:00.127Z,17.70
2022-08-24T00:53:34.352Z,17.80
2022-08-24T00:56:09.215Z,17.70
2022-08-24T00:58:42.870Z,17.90
2022-08-24T01:01:14.849Z,17.70
2022-08-24T01:03:46.642Z,17.90
2022-08-24T01:06:17.349Z,17.90
2022-08-24T01:08:48.091Z,18.00
2022-08-24T01:11:23.780Z,18.00
2022-08-24T01:13:56.288Z,17.80
2022-08-24T01:16:44.888Z,17.70
2022-08-24T01:19:19.513Z,18.40
2022-08-24T01:21:54.601Z,18.20
2022-08-24T01:24:25.191Z,17.90
2022-08-24T01:26:55.830Z,17.60
2022-08-24T01:29:31.070Z,17.40
2022-08-24T01:32:02.113Z,17.40
2022-08-24T01:34:32.740Z,17.70
2022-08-24T01:37:05.176Z,17.70
2022-08-24T01:39:38.748Z,18.20
2022-08-24T01:42:10.608Z,18.20
2022-08-24T01:44:44.021Z,18.10
2022-08-24T01:47:16.524Z,18.60
2022-08-24T01:49:49.595Z,19.10
2022-08-24T01:52:23.229Z,19.10
2022-08-24T01:54:54.738Z,19.00
2022-08-24T01:57:28.481Z,19.00
2022-08-24T01:59:59.201Z,19.10
2022-08-24T02:02:32.092Z,19.00
2022-08-24T02:05:03.355Z,19.00
2022-08-24T02:07:34.027Z,18.90
2022-08-24T02:10:06.549Z,18.90
2022-08-24T02:12:39.024Z,18.80
2022-08-24T02:15:12.934Z,18.30
2022-08-24T02:17:44.225Z,18.20
2022-08-24T02:20:14.988Z,18.20
2022-08-24T02:22:45.795Z,18.40
2022-08-24T02:25:17.002Z,18.30
2022-08-24T02:27:47.979Z,18.20
2022-08-24T02:30:18.938Z,18.10
2022-08-24T02:32:49.557Z,18.20
2022-08-24T02:35:20.693Z,18.30
2022-08-24T02:37:52.461Z,17.90
2022-08-24T02:40:24.488Z,17.90
2022-08-24T02:42:55.974Z,17.80
2022-08-24T02:45:26.670Z,18.00
2022-08-24T02:47:59.110Z,17.90
2022-08-24T02:50:29.984Z,17.90
2022-08-24T02:53:00.573Z,17.80
2022-08-24T02:55:31.286Z,17.90
2022-08-24T02:58:01.880Z,17.90
2022-08-24T03:00:33.059Z,17.70
2022-08-24T03:03:04.279Z,17.60
2022-08-24T03:05:35.299Z,17.50
2022-08-24T03:08:06.608Z,17.20
2022-08-24T03:10:38.097Z,17.10
2022-08-24T03:13:09.417Z,17.10
2022-08-24T03:15:40.300Z,16.90
2022-08-24T03:18:11.058Z,17.00
2022-08-24T03:20:44.150Z,17.30
2022-08-24T03:23:14.738Z,17.50
2022-08-24T03:25:45.729Z,17.70
2022-08-24T03:28:16.555Z,17.80
2022-08-24T03:30:48.902Z,17.80
2022-08-24T03:33:21.907Z,17.80
2022-08-24T03:35:53.598Z,17.60
2022-08-24T03:38:24.299Z,17.50
2022-08-24T03:40:54.878Z,17.30
2022-08-24T03:43:43.517Z,16.90
2022-08-24T03:46:14.538Z,16.80
2022-08-24T03:48:45.543Z,16.80
2022-08-24T03:51:18.958Z,16.70
2022-08-24T03:53:49.674Z,16.60
2022-08-24T03:56:21.071Z,16.60
2022-08-24T03:58:51.684Z,16.70
2022-08-24T04:01:22.734Z,16.70
2022-08-24T04:03:54.342Z,16.70
2022-08-24T04:06:25.520Z,16.70
2022-08-24T04:08:57.029Z,16.40
2022-08-24T04:11:30.272Z,16.50
2022-08-24T04:14:01.652Z,16.90
2022-08-24T04:16:32.518Z,16.70
2022-08-24T04:19:03.341Z,16.60
2022-08-24T04:21:36.595Z,16.50
2022-08-24T04:24:09.846Z,16.80
2022-08-24T04:26:45.232Z,16.60
2022-08-24T04:29:16.041Z,16.40
2022-08-24T04:31:46.972Z,16.40
2022-08-24T04:34:18.803Z,16.40
2022-08-24T04:36:49.629Z,16.30
2022-08-24T04:39:20.357Z,16.30
2022-08-24T04:41:51.303Z,16.30
2022-08-24T04:44:22.296Z,16.30
2022-08-24T04:49:32.906Z,16.20
2022-08-24T04:52:04.225Z,16.50
2022-08-24T04:57:15.987Z,16.60
2022-08-24T04:59:44.885Z,16.70
2022-08-24T05:02:15.770Z,16.70
2022-08-24T05:04:46.498Z,16.30
2022-08-24T05:07:18.623Z,16.40
2022-08-24T05:09:49.307Z,16.50
2022-08-24T05:12:21.765Z,16.30
2022-08-24T05:14:52.687Z,16.50
2022-08-24T05:17:23.412Z,16.60
2022-08-24T05:22:31.050Z,16.80
2022-08-24T05:25:03.048Z,17.00
2022-08-24T05:27:36.083Z,17.10
2022-08-24T05:30:09.188Z,17.30
2022-08-24T05:32:40.158Z,17.30
2022-08-24T05:35:12.047Z,17.50
2022-08-24T05:37:44.194Z,17.50
2022-08-24T05:40:18.529Z,17.30
2022-08-24T05:42:50.522Z,17.30
2022-08-24T05:45:21.616Z,17.10
2022-08-24T05:47:52.301Z,16.90
2022-08-24T05:50:23.131Z,16.90
2022-08-24T05:52:53.992Z,17.00
2022-08-24T05:55:24.893Z,17.20
2022-08-24T05:57:56.309Z,17.30
2022-08-24T06:00:27.237Z,17.40
2022-08-24T06:02:58.137Z,17.60
2022-08-24T06:05:29.086Z,17.60
2022-08-24T06:08:01.327Z,17.60
2022-08-24T06:10:36.609Z,17.70
2022-08-24T06:13:05.701Z,18.00
2022-08-24T06:15:37.226Z,18.30
2022-08-24T06:18:09.508Z,18.40
2022-08-24T06:20:43.593Z,18.40
2022-08-24T06:23:15.871Z,18.30
2022-08-24T06:26:04.044Z,18.50
2022-08-24T06:28:34.689Z,18.60
2022-08-24T06:31:08.217Z,18.70
2022-08-24T06:33:38.839Z,18.90
2022-08-24T06:36:10.740Z,19.10
2022-08-24T06:38:41.564Z,19.30
2022-08-24T06:41:13.958Z,19.60
2022-08-24T06:43:44.659Z,19.70
2022-08-24T06:46:15.424Z,19.90
2022-08-24T06:48:46.406Z,19.80
2022-08-24T06:51:19.103Z,19.90
2022-08-24T06:53:50.833Z,20.00
2022-08-24T06:59:02.753Z,20.20
2022-08-24T07:01:34.171Z,20.30
2022-08-24T07:04:05.245Z,20.40
2022-08-24T07:06:38.134Z,20.60
2022-08-24T07:09:08.884Z,20.70
2022-08-24T07:11:39.931Z,20.70
2022-08-24T07:14:10.733Z,20.80
2022-08-24T07:16:41.621Z,20.80
2022-08-24T07:19:12.446Z,20.90
2022-08-24T07:21:43.774Z,20.90
2022-08-24T07:24:15.345Z,21.20
2022-08-24T07:26:46.445Z,21.30
2022-08-24T07:29:45.805Z,21.50
2022-08-24T07:31:49.958Z,21.10
2022-08-24T07:34:20.887Z,21.30
2022-08-24T07:36:52.610Z,21.60
2022-08-24T07:39:23.448Z,21.70
2022-08-24T07:42:13.351Z,21.70
2022-08-24T07:44:27.045Z,21.70
2022-08-24T07:47:10.400Z,21.90
2022-08-24T07:49:37.188Z,21.80
2022-08-24T07:52:05.967Z,22.00
2022-08-24T07:54:36.668Z,21.60
2022-08-24T07:57:08.153Z,21.50
2022-08-24T07:59:39.634Z,21.80
2022-08-24T08:02:11.831Z,22.00
2022-08-24T08:04:43.574Z,22.00
2022-08-24T08:07:14.961Z,22.20
2022-08-24T08:09:46.492Z,22.60
2022-08-24T08:12:17.165Z,22.70
2022-08-24T08:14:48.928Z,22.90
2022-08-24T08:17:19.667Z,23.10
2022-08-24T08:19:51.264Z,23.00
2022-08-24T08:22:40.881Z,22.70
2022-08-24T08:25:12.462Z,22.90
2022-08-24T08:30:16.472Z,23.40
2022-08-24T08:32:47.268Z,23.40
2022-08-24T08:35:19.331Z,23.30
2022-08-24T08:37:50.738Z,23.30
2022-08-24T08:40:27.591Z,23.40
2022-08-24T08:43:03.053Z,23.60
2022-08-24T08:45:38.718Z,23.70
2022-08-24T08:49:03.836Z,24.00
2022-08-24T08:51:56.806Z,24.00
2022-08-24T08:54:43.733Z,23.70
2022-08-24T08:57:25.990Z,23.80
2022-08-24T09:00:07.069Z,24.00
2022-08-24T09:02:56.794Z,24.50
2022-08-24T09:08:44.137Z,24.30
2022-08-24T09:11:19.891Z,24.40
2022-08-24T09:17:25.008Z,24.40
2022-08-24T09:20:11.587Z,24.90
2022-08-24T09:22:46.887Z,24.90
2022-08-24T09:25:26.894Z,25.10
2022-08-24T09:28:16.445Z,25.30
2022-08-24T09:31:00.279Z,25.50
2022-08-24T09:33:34.586Z,25.20
2022-08-24T09:36:12.633Z,25.00
2022-08-24T09:39:08.440Z,25.50
2022-08-24T09:42:22.599Z,25.50
2022-08-24T09:45:31.762Z,25.70
2022-08-24T09:51:24.560Z,26.00
2022-08-24T09:54:49.525Z,26.20
2022-08-24T09:58:02.462Z,26.10
2022-08-24T10:00:23.881Z,26.00
2022-08-24T10:03:21.742Z,26.50
2022-08-24T10:06:07.457Z,26.80
2022-08-24T10:09:12.446Z,27.00
2022-08-24T10:11:47.975Z,27.30
2022-08-24T10:14:22.866Z,27.10
2022-08-24T10:16:57.172Z,27.10
2022-08-24T10:19:57.353Z,27.10
2022-08-24T10:22:36.277Z,27.30
2022-08-24T10:25:15.541Z,27.30
2022-08-24T10:27:54.146Z,27.70
2022-08-24T10:31:02.111Z,27.50
2022-08-24T10:33:35.901Z,27.60
2022-08-24T10:36:37.399Z,27.50
2022-08-24T10:39:45.992Z,27.90
2022-08-24T10:42:47.922Z,27.90
2022-08-24T10:45:30.643Z,28.00
2022-08-24T10:48:14.479Z,28.10
2022-08-24T10:50:54.663Z,28.40
2022-08-24T10:53:31.234Z,28.20
2022-08-24T10:58:55.645Z,28.50
2022-08-24T11:01:31.459Z,28.60
2022-08-24T11:04:07.400Z,28.80
2022-08-24T11:06:40.832Z,29.10
2022-08-24T11:09:19.219Z,29.10
2022-08-24T11:11:48.688Z,28.90
2022-08-24T11:14:29.387Z,28.60
2022-08-24T11:17:17.034Z,28.70
2022-08-24T11:19:48.684Z,28.40
2022-08-24T11:22:32.470Z,28.30
2022-08-24T11:25:06.913Z,28.40
2022-08-24T11:27:40.427Z,29.10
2022-08-24T11:30:17.449Z,29.20
2022-08-24T11:32:51.034Z,29.20
2022-08-24T11:35:26.260Z,29.50
2022-08-24T11:38:00.992Z,29.40
2022-08-24T11:40:34.623Z,29.50
2022-08-24T11:43:26.616Z,29.90
2022-08-24T11:46:06.730Z,30.10
2022-08-24T11:48:43.117Z,30.30
2022-08-24T11:51:17.687Z,30.50
2022-08-24T11:53:54.184Z,30.20
2022-08-24T11:59:08.613Z,29.90
2022-08-24T12:04:34.438Z,30.70
2022-08-24T12:07:11.563Z,30.90
2022-08-24T12:10:01.896Z,30.90
2022-08-24T12:12:36.358Z,30.80
2022-08-24T12:15:10.747Z,31.50
2022-08-24T12:17:44.494Z,31.80
2022-08-24T12:20:22.235Z,31.30
2022-08-24T12:22:55.895Z,31.30
2022-08-24T12:25:47.358Z,31.10
2022-08-24T12:28:21.285Z,31.30
2022-08-24T12:30:54.145Z,31.00
2022-08-24T12:33:28.096Z,30.70
2022-08-24T12:36:02.936Z,30.90
2022-08-24T12:38:37.052Z,31.50
2022-08-24T12:41:17.723Z,32.00
2022-08-24T12:43:47.141Z,32.10
2022-08-24T12:46:19.814Z,32.20
2022-08-24T12:48:55.133Z,32.40
2022-08-24T12:51:29.788Z,32.10
2022-08-24T12:54:16.496Z,32.10
2022-08-24T12:57:13.559Z,31.80
2022-08-24T12:59:47.536Z,31.10
2022-08-24T13:02:39.357Z,30.80
2022-08-24T13:05:18.071Z,30.20
2022-08-24T13:07:51.277Z,30.40
2022-08-24T13:10:43.148Z,30.40
2022-08-24T13:13:23.437Z,29.80
2022-08-24T13:19:16.169Z,30.10
2022-08-24T13:21:58.798Z,30.00
2022-08-24T13:25:01.048Z,30.20
2022-08-24T13:28:13.173Z,30.50
2022-08-24T13:31:07.889Z,31.20
2022-08-24T13:33:42.597Z,31.50
2022-08-24T13:36:47.629Z,32.30
2022-08-24T13:39:30.427Z,32.70
2022-08-24T13:45:06.532Z,33.10
2022-08-24T13:47:49.113Z,33.50
2022-08-24T13:50:34.670Z,33.30
2022-08-24T13:53:17.556Z,33.40
2022-08-24T13:55:51.197Z,33.60
2022-08-24T13:58:35.879Z,34.00
2022-08-24T14:01:10.292Z,34.40
2022-08-24T14:04:00.245Z,34.30
2022-08-24T14:06:35.925Z,34.30
2022-08-24T14:12:14.491Z,33.80
2022-08-24T14:14:55.358Z,34.20
2022-08-24T14:17:48.706Z,35.00
2022-08-24T14:20:32.625Z,34.70
2022-08-24T14:23:07.407Z,34.60
2022-08-24T14:25:39.485Z,34.40
2022-08-24T14:28:39.814Z,34.50
2022-08-24T14:31:21.492Z,34.20
2022-08-24T14:34:00.115Z,34.30
2022-08-24T14:36:43.847Z,34.80
2022-08-24T14:39:24.720Z,34.90
2022-08-24T14:42:02.345Z,33.40
2022-08-24T14:44:54.246Z,34.30
2022-08-24T14:47:30.557Z,34.70
2022-08-24T14:50:12.097Z,35.70
2022-08-24T14:53:03.106Z,35.70
2022-08-24T14:55:38.201Z,35.60
2022-08-24T14:58:30.546Z,35.60
2022-08-24T15:01:43.491Z,35.20
2022-08-24T15:04:38.094Z,35.50
2022-08-24T15:07:26.345Z,36.20
2022-08-24T15:09:59.432Z,35.50
2022-08-24T15:12:37.385Z,35.10
2022-08-24T15:15:24.025Z,35.30
2022-08-24T15:18:01.255Z,35.50
2022-08-24T15:23:32.140Z,35.10
2022-08-24T15:26:06.238Z,35.10
2022-08-24T15:28:38.855Z,35.20
2022-08-24T15:31:14.638Z,35.30
2022-08-24T15:33:56.706Z,35.00
2022-08-24T15:36:30.247Z,35.40
2022-08-24T15:39:02.024Z,35.60
2022-08-24T15:41:35.727Z,35.40
2022-08-24T15:44:09.625Z,35.50
2022-08-24T15:46:43.501Z,34.70
2022-08-24T15:49:18.468Z,33.50
2022-08-24T15:51:53.442Z,32.60
2022-08-24T15:54:35.803Z,31.70
2022-08-24T15:57:09.340Z,30.90
2022-08-24T15:59:50.364Z,30.80
2022-08-24T16:02:30.577Z,30.80
2022-08-24T16:08:13.634Z,30.60
2022-08-24T16:10:46.703Z,30.30
2022-08-24T16:13:25.347Z,29.90
2022-08-24T16:16:03.502Z,29.60
2022-08-24T16:18:51.352Z,29.70
2022-08-24T16:21:25.428Z,29.70
2022-08-24T16:24:02.384Z,30.00
2022-08-24T16:26:37.655Z,29.60
2022-08-24T16:29:08.530Z,29.80
2022-08-24T16:31:49.379Z,29.70
2022-08-24T16:34:25.007Z,29.50
2022-08-24T16:36:56.218Z,29.40
2022-08-24T16:39:27.988Z,29.40
2022-08-24T16:42:03.590Z,28.90
2022-08-24T16:44:38.330Z,28.80
2022-08-24T16:47:10.260Z,28.80
2022-08-24T16:49:41.338Z,28.80
2022-08-24T16:52:30.593Z,28.50
2022-08-24T16:55:01.703Z,28.30
2022-08-24T16:57:36.496Z,28.40
2022-08-24T17:00:12.557Z,28.50
2022-08-24T17:02:43.582Z,28.30
2022-08-24T17:05:14.580Z,28.20
2022-08-24T17:07:46.289Z,28.10
2022-08-24T17:10:20.120Z,28.00
2022-08-24T17:12:52.387Z,27.90
2022-08-24T17:15:23.751Z,27.90
2022-08-24T17:18:00.247Z,27.90
2022-08-24T17:20:31.685Z,27.80
2022-08-24T17:23:02.383Z,27.70
2022-08-24T17:25:33.965Z,27.70
2022-08-24T17:28:05.927Z,27.60
2022-08-24T17:30:36.928Z,27.50
2022-08-24T17:33:07.526Z,27.50
2022-08-24T17:35:40.698Z,27.40
2022-08-24T17:38:12.143Z,27.30
2022-08-24T17:40:42.794Z,27.20
2022-08-24T17:43:14.429Z,26.90
2022-08-24T17:45:45.469Z,26.70
2022-08-24T17:48:19.353Z,26.50
2022-08-24T17:50:50.038Z,26.30
2022-08-24T17:53:21.285Z,26.20
2022-08-24T17:55:52.189Z,26.20
2022-08-24T17:58:23.236Z,26.10
2022-08-24T18:00:53.941Z,26.00
2022-08-24T18:03:24.993Z,25.70
2022-08-24T18:05:55.540Z,25.50
2022-08-24T18:08:27.260Z,25.20
2022-08-24T18:10:59.039Z,25.00
2022-08-24T18:13:29.635Z,24.80
2022-08-24T18:16:00.503Z,24.70
2022-08-24T18:18:31.291Z,24.70
2022-08-24T18:21:01.906Z,24.70
2022-08-24T18:23:32.469Z,24.60
2022-08-24T18:26:04.716Z,24.50
2022-08-24T18:28:37.043Z,24.50
2022-08-24T18:31:07.876Z,24.30
2022-08-24T18:33:38.583Z,24.40
2022-08-24T18:36:10.246Z,24.50
2022-08-24T18:38:40.867Z,24.30
2022-08-24T18:41:12.828Z,24.20
2022-08-24T18:43:43.502Z,24.20
2022-08-24T18:46:14.402Z,24.10
2022-08-24T18:48:45.141Z,24.00
2022-08-24T18:51:17.976Z,24.00
2022-08-24T18:53:49.103Z,23.90
2022-08-24T18:56:20.146Z,23.80
2022-08-24T18:58:51.426Z,23.70
2022-08-24T19:01:23.575Z,23.60
2022-08-24T19:03:55.224Z,23.40
2022-08-24T19:06:27.044Z,23.30
2022-08-24T19:08:58.594Z,23.20
2022-08-24T19:11:29.811Z,23.10
2022-08-24T19:14:02.578Z,23.00
2022-08-24T19:16:37.162Z,23.00
2022-08-24T19:19:08.111Z,22.90
2022-08-24T19:21:41.135Z,23.00
2022-08-24T19:24:12.338Z,22.90
2022-08-24T19:26:43.381Z,22.80
2022-08-24T19:29:14.304Z,22.90
2022-08-24T19:31:45.341Z,23.00
2022-08-24T19:34:16.694Z,23.00
2022-08-24T19:36:48.716Z,22.70
2022-08-24T19:39:19.942Z,22.70
2022-08-24T19:41:53.396Z,22.50
2022-08-24T19:44:47.343Z,22.50
2022-08-24T19:47:15.124Z,22.50
2022-08-24T19:49:46.261Z,22.30
2022-08-24T19:52:18.236Z,22.20
2022-08-24T19:54:49.830Z,22.20
2022-08-24T19:57:52.176Z,22.20
2022-08-24T20:00:30.710Z,22.20
2022-08-24T20:03:03.484Z,22.30
2022-08-24T20:05:35.842Z,22.10
2022-08-24T20:08:07.889Z,22.00
2022-08-24T20:10:41.249Z,21.90
2022-08-24T20:13:11.825Z,21.80
2022-08-24T20:15:43.188Z,21.80
2022-08-24T20:18:15.000Z,21.70
2022-08-24T20:20:46.379Z,21.80
2022-08-24T20:23:18.393Z,21.70
2022-08-24T20:25:49.275Z,21.80
2022-08-24T20:28:30.061Z,21.90
2022-08-24T20:30:53.368Z,21.80
2022-08-24T20:33:25.040Z,21.80
2022-08-24T20:35:56.517Z,21.70
2022-08-24T20:38:31.694Z,21.60
2022-08-24T20:41:01.565Z,21.60
2022-08-24T20:43:32.240Z,21.40
2022-08-24T20:46:02.839Z,21.30
2022-08-24T20:48:37.374Z,21.40
2022-08-24T20:51:08.138Z,21.50
2022-08-24T20:53:38.843Z,21.40
2022-08-24T20:56:12.960Z,21.20
2022-08-24T20:58:44.713Z,21.10
2022-08-24T21:01:15.330Z,20.90
2022-08-24T21:03:46.076Z,20.80
2022-08-24T21:06:21.651Z,20.90
2022-08-24T21:08:54.887Z,20.90
2022-08-24T21:11:25.635Z,21.00
2022-08-24T21:13:56.198Z,21.00
2022-08-24T21:16:27.361Z,21.10
2022-08-24T21:18:58.337Z,21.10
2022-08-24T21:21:29.024Z,21.10
2022-08-24T21:23:59.597Z,21.00
2022-08-24T21:26:32.896Z,20.70
2022-08-24T21:29:06.007Z,20.50
2022-08-24T21:31:37.074Z,20.50
2022-08-24T21:34:26.613Z,20.50
2022-08-24T21:36:58.362Z,20.50
2022-08-24T21:39:30.624Z,20.70
2022-08-24T21:42:01.417Z,20.70
2022-08-24T21:44:31.976Z,20.80
2022-08-24T21:47:21.285Z,20.90
2022-08-24T21:49:51.892Z,20.90
2022-08-24T21:52:22.735Z,20.80
2022-08-24T21:54:53.620Z,20.90
2022-08-24T21:57:24.768Z,21.00
2022-08-24T21:59:55.389Z,20.90
2022-08-24T22:02:26.142Z,20.80
2022-08-24T22:04:57.272Z,20.80
2022-08-24T22:07:28.115Z,20.80
2022-08-24T22:09:58.822Z,20.50
2022-08-24T22:12:29.796Z,20.10
2022-08-24T22:15:00.464Z,19.80
2022-08-24T22:17:31.245Z,19.90
2022-08-24T22:20:01.905Z,20.10
2022-08-24T22:22:32.592Z,20.00
2022-08-24T22:25:03.606Z,19.90
2022-08-24T22:27:34.502Z,19.90
2022-08-24T22:30:06.227Z,20.30
2022-08-24T22:32:36.888Z,20.50
2022-08-24T22:35:09.277Z,20.50
2022-08-24T22:37:40.454Z,20.60
2022-08-24T22:40:13.739Z,20.40
2022-08-24T22:42:44.490Z,20.50
2022-08-24T22:45:15.762Z,20.50
2022-08-24T22:47:46.375Z,20.20
2022-08-24T22:50:17.266Z,20.00
2022-08-24T22:52:47.833Z,19.90
2022-08-24T22:55:18.482Z,20.10
2022-08-24T22:57:51.221Z,20.00
2022-08-24T23:00:23.042Z,20.00
2022-08-24T23:02:53.615Z,19.90
2022-08-24T23:05:24.625Z,20.00
2022-08-24T23:07:55.244Z,20.10
2022-08-24T23:10:26.650Z,20.40
2022-08-24T23:12:57.253Z,20.50
2022-08-24T23:15:27.856Z,20.30
2022-08-24T23:17:58.495Z,19.90
2022-08-24T23:20:29.073Z,19.80
2022-08-24T23:22:59.672Z,20.00
2022-08-24T23:25:30.272Z,20.10
2022-08-24T23:28:01.365Z,20.00
2022-08-24T23:30:31.946Z,19.70
2022-08-24T23:33:02.766Z,19.30
2022-08-24T23:35:33.490Z,19.10
2022-08-24T23:38:04.259Z,19.20
2022-08-24T23:40:35.004Z,19.10
2022-08-24T23:43:05.702Z,19.00
2022-08-24T23:45:38.870Z,18.80
2022-08-24T23:48:09.697Z,18.90
2022-08-24T23:50:40.349Z,19.20
2022-08-24T23:53:10.963Z,19.50
2022-08-24T23:55:42.122Z,19.70
2022-08-24T23:58:12.703Z,19.80
